sensor_id;sensor_type;location;lat;lon;timestamp;P1;durP1;ratioP1;P2;durP2;ratioP2
50379;SDS011;37474;59.468;18.040;2023-11-22T00:02:09;5.33;;;3.03;;
50379;SDS011;37474;59.468;18.040;2023-11-22T00:04:37;4.37;;;2.40;;
50379;SDS011;37474;59.468;18.040;2023-11-22T00:07:05;7.80;;;2.67;;
50379;SDS011;37474;59.468;18.040;2023-11-22T00:09:34;4.03;;;3.07;;
50379;SDS011;37474;59.468;18.040;2023-11-22T00:12:03;3.77;;;2.63;;
50379;SDS011;37474;59.468;18.040;2023-11-22T00:14:32;3.27;;;2.20;;
50379;SDS011;37474;59.468;18.040;2023-11-22T00:17:01;4.93;;;2.57;;
50379;SDS011;37474;59.468;18.040;2023-11-22T00:19:30;4.37;;;2.60;;
50379;SDS011;37474;59.468;18.040;2023-11-22T00:21:59;3.33;;;2.33;;
50379;SDS011;37474;59.468;18.040;2023-11-22T00:24:29;3.58;;;2.33;;
50379;SDS011;37474;59.468;18.040;2023-11-22T00:26:57;3.80;;;2.37;;
50379;SDS011;37474;59.468;18.040;2023-11-22T00:29:27;4.10;;;2.40;;
50379;SDS011;37474;59.468;18.040;2023-11-22T00:31:55;3.97;;;2.40;;
50379;SDS011;37474;59.468;18.040;2023-11-22T00:34:23;3.37;;;2.63;;
50379;SDS011;37474;59.468;18.040;2023-11-22T00:36:51;3.70;;;2.30;;
50379;SDS011;37474;59.468;18.040;2023-11-22T00:39:19;3.57;;;2.40;;
50379;SDS011;37474;59.468;18.040;2023-11-22T00:41:48;5.40;;;2.73;;
50379;SDS011;37474;59.468;18.040;2023-11-22T00:44:17;5.53;;;3.03;;
50379;SDS011;37474;59.468;18.040;2023-11-22T00:46:46;3.23;;;2.57;;
50379;SDS011;37474;59.468;18.040;2023-11-22T00:49:15;3.85;;;2.47;;
50379;SDS011;37474;59.468;18.040;2023-11-22T00:51:43;3.30;;;2.27;;
50379;SDS011;37474;59.468;18.040;2023-11-22T00:54:11;5.83;;;2.83;;
50379;SDS011;37474;59.468;18.040;2023-11-22T00:56:39;3.50;;;2.40;;
50379;SDS011;37474;59.468;18.040;2023-11-22T00:59:07;2.80;;;2.20;;
50379;SDS011;37474;59.468;18.040;2023-11-22T01:01:35;3.90;;;2.37;;
50379;SDS011;37474;59.468;18.040;2023-11-22T01:04:05;4.10;;;2.23;;
50379;SDS011;37474;59.468;18.040;2023-11-22T01:06:34;3.05;;;2.40;;
50379;SDS011;37474;59.468;18.040;2023-11-22T01:09:03;3.97;;;2.50;;
50379;SDS011;37474;59.468;18.040;2023-11-22T01:11:31;3.47;;;2.40;;
50379;SDS011;37474;59.468;18.040;2023-11-22T01:13:59;3.97;;;2.20;;
50379;SDS011;37474;59.468;18.040;2023-11-22T01:16:27;3.43;;;2.27;;
50379;SDS011;37474;59.468;18.040;2023-11-22T01:18:57;4.93;;;2.40;;
50379;SDS011;37474;59.468;18.040;2023-11-22T01:21:30;3.00;;;2.30;;
50379;SDS011;37474;59.468;18.040;2023-11-22T01:23:58;6.00;;;2.47;;
50379;SDS011;37474;59.468;18.040;2023-11-22T01:26:26;4.20;;;2.43;;
50379;SDS011;37474;59.468;18.040;2023-11-22T01:28:54;5.30;;;2.50;;
50379;SDS011;37474;59.468;18.040;2023-11-22T01:31:22;5.20;;;2.27;;
50379;SDS011;37474;59.468;18.040;2023-11-22T01:33:50;6.20;;;2.33;;
50379;SDS011;37474;59.468;18.040;2023-11-22T01:36:18;3.13;;;2.10;;
50379;SDS011;37474;59.468;18.040;2023-11-22T01:38:48;6.80;;;2.40;;
50379;SDS011;37474;59.468;18.040;2023-11-22T01:41:16;4.70;;;2.85;;
50379;SDS011;37474;59.468;18.040;2023-11-22T01:43:46;4.23;;;2.23;;
50379;SDS011;37474;59.468;18.040;2023-11-22T01:46:16;4.70;;;2.50;;
50379;SDS011;37474;59.468;18.040;2023-11-22T01:48:49;3.73;;;2.30;;
50379;SDS011;37474;59.468;18.040;2023-11-22T01:51:19;3.80;;;2.40;;
50379;SDS011;37474;59.468;18.040;2023-11-22T01:53:50;4.47;;;2.43;;
50379;SDS011;37474;59.468;18.040;2023-11-22T01:56:20;2.93;;;2.00;;
50379;SDS011;37474;59.468;18.040;2023-11-22T01:58:48;3.80;;;2.20;;
50379;SDS011;37474;59.468;18.040;2023-11-22T02:01:17;3.73;;;2.10;;
50379;SDS011;37474;59.468;18.040;2023-11-22T02:03:46;3.30;;;2.20;;
50379;SDS011;37474;59.468;18.040;2023-11-22T02:06:15;4.53;;;2.50;;
50379;SDS011;37474;59.468;18.040;2023-11-22T02:08:43;3.13;;;2.20;;
50379;SDS011;37474;59.468;18.040;2023-11-22T02:11:13;4.43;;;2.17;;
50379;SDS011;37474;59.468;18.040;2023-11-22T02:13:48;3.57;;;2.50;;
50379;SDS011;37474;59.468;18.040;2023-11-22T02:16:17;4.63;;;2.30;;
50379;SDS011;37474;59.468;18.040;2023-11-22T02:18:45;3.37;;;2.07;;
50379;SDS011;37474;59.468;18.040;2023-11-22T02:21:16;3.67;;;2.27;;
50379;SDS011;37474;59.468;18.040;2023-11-22T02:23:46;3.40;;;2.50;;
50379;SDS011;37474;59.468;18.040;2023-11-22T02:26:14;3.30;;;2.03;;
50379;SDS011;37474;59.468;18.040;2023-11-22T02:28:44;3.43;;;2.30;;
50379;SDS011;37474;59.468;18.040;2023-11-22T02:31:12;2.83;;;2.10;;
50379;SDS011;37474;59.468;18.040;2023-11-22T02:33:41;3.53;;;2.33;;
50379;SDS011;37474;59.468;18.040;2023-11-22T02:36:09;3.80;;;2.20;;
50379;SDS011;37474;59.468;18.040;2023-11-22T02:38:39;4.95;;;2.40;;
50379;SDS011;37474;59.468;18.040;2023-11-22T02:41:09;3.73;;;2.43;;
50379;SDS011;37474;59.468;18.040;2023-11-22T02:43:37;4.78;;;2.28;;
50379;SDS011;37474;59.468;18.040;2023-11-22T02:46:06;4.17;;;2.37;;
50379;SDS011;37474;59.468;18.040;2023-11-22T02:48:35;4.97;;;2.53;;
50379;SDS011;37474;59.468;18.040;2023-11-22T02:51:03;4.93;;;2.50;;
50379;SDS011;37474;59.468;18.040;2023-11-22T02:53:33;6.25;;;2.47;;
50379;SDS011;37474;59.468;18.040;2023-11-22T02:56:01;4.43;;;2.30;;
50379;SDS011;37474;59.468;18.040;2023-11-22T02:58:31;4.30;;;2.23;;
50379;SDS011;37474;59.468;18.040;2023-11-22T03:00:59;3.60;;;2.50;;
50379;SDS011;37474;59.468;18.040;2023-11-22T03:03:27;4.27;;;2.60;;
50379;SDS011;37474;59.468;18.040;2023-11-22T03:05:56;4.27;;;2.40;;
50379;SDS011;37474;59.468;18.040;2023-11-22T03:08:24;5.83;;;2.30;;
50379;SDS011;37474;59.468;18.040;2023-11-22T03:10:52;4.27;;;2.40;;
50379;SDS011;37474;59.468;18.040;2023-11-22T03:13:20;4.87;;;2.43;;
50379;SDS011;37474;59.468;18.040;2023-11-22T03:15:49;3.93;;;2.37;;
50379;SDS011;37474;59.468;18.040;2023-11-22T03:18:18;5.20;;;2.83;;
50379;SDS011;37474;59.468;18.040;2023-11-22T03:20:48;4.35;;;2.53;;
50379;SDS011;37474;59.468;18.040;2023-11-22T03:23:21;4.23;;;2.67;;
50379;SDS011;37474;59.468;18.040;2023-11-22T03:25:49;5.27;;;2.63;;
50379;SDS011;37474;59.468;18.040;2023-11-22T03:28:17;4.57;;;2.40;;
50379;SDS011;37474;59.468;18.040;2023-11-22T03:30:45;3.93;;;2.40;;
50379;SDS011;37474;59.468;18.040;2023-11-22T03:33:14;4.17;;;2.33;;
50379;SDS011;37474;59.468;18.040;2023-11-22T03:35:42;6.88;;;2.35;;
50379;SDS011;37474;59.468;18.040;2023-11-22T03:38:10;6.03;;;2.47;;
50379;SDS011;37474;59.468;18.040;2023-11-22T03:40:38;5.37;;;2.47;;
50379;SDS011;37474;59.468;18.040;2023-11-22T03:43:06;4.67;;;2.40;;
50379;SDS011;37474;59.468;18.040;2023-11-22T03:45:36;4.20;;;2.90;;
50379;SDS011;37474;59.468;18.040;2023-11-22T03:48:04;4.17;;;2.60;;
50379;SDS011;37474;59.468;18.040;2023-11-22T03:50:34;5.33;;;2.70;;
50379;SDS011;37474;59.468;18.040;2023-11-22T03:53:02;5.10;;;2.35;;
50379;SDS011;37474;59.468;18.040;2023-11-22T03:55:30;3.57;;;2.40;;
50379;SDS011;37474;59.468;18.040;2023-11-22T03:57:58;3.97;;;2.40;;
50379;SDS011;37474;59.468;18.040;2023-11-22T04:00:26;3.70;;;2.20;;
50379;SDS011;37474;59.468;18.040;2023-11-22T04:02:55;5.33;;;3.10;;
50379;SDS011;37474;59.468;18.040;2023-11-22T04:05:25;5.37;;;2.70;;
50379;SDS011;37474;59.468;18.040;2023-11-22T04:07:55;4.80;;;2.70;;
50379;SDS011;37474;59.468;18.040;2023-11-22T04:10:23;5.00;;;2.88;;
50379;SDS011;37474;59.468;18.040;2023-11-22T04:12:51;3.60;;;2.30;;
50379;SDS011;37474;59.468;18.040;2023-11-22T04:15:19;3.97;;;2.57;;
50379;SDS011;37474;59.468;18.040;2023-11-22T04:17:48;3.20;;;2.40;;
50379;SDS011;37474;59.468;18.040;2023-11-22T04:20:16;3.93;;;2.33;;
50379;SDS011;37474;59.468;18.040;2023-11-22T04:22:45;3.70;;;2.07;;
50379;SDS011;37474;59.468;18.040;2023-11-22T04:25:14;4.30;;;2.20;;
50379;SDS011;37474;59.468;18.040;2023-11-22T04:27:42;8.82;;;2.63;;
50379;SDS011;37474;59.468;18.040;2023-11-22T04:30:11;4.80;;;2.53;;
50379;SDS011;37474;59.468;18.040;2023-11-22T04:32:41;3.88;;;2.28;;
50379;SDS011;37474;59.468;18.040;2023-11-22T04:35:09;4.43;;;2.43;;
50379;SDS011;37474;59.468;18.040;2023-11-22T04:37:38;3.73;;;2.37;;
50379;SDS011;37474;59.468;18.040;2023-11-22T04:40:06;5.40;;;2.80;;
50379;SDS011;37474;59.468;18.040;2023-11-22T04:42:36;6.67;;;2.80;;
50379;SDS011;37474;59.468;18.040;2023-11-22T04:45:05;6.10;;;2.70;;
50379;SDS011;37474;59.468;18.040;2023-11-22T04:47:33;3.40;;;2.17;;
50379;SDS011;37474;59.468;18.040;2023-11-22T04:50:02;4.53;;;2.40;;
50379;SDS011;37474;59.468;18.040;2023-11-22T04:52:31;3.55;;;2.40;;
50379;SDS011;37474;59.468;18.040;2023-11-22T04:54:59;5.00;;;2.50;;
50379;SDS011;37474;59.468;18.040;2023-11-22T04:57:27;4.37;;;2.47;;
50379;SDS011;37474;59.468;18.040;2023-11-22T04:59:57;4.60;;;2.50;;
50379;SDS011;37474;59.468;18.040;2023-11-22T05:02:27;6.63;;;2.63;;
50379;SDS011;37474;59.468;18.040;2023-11-22T05:04:54;4.77;;;2.70;;
50379;SDS011;37474;59.468;18.040;2023-11-22T05:07:23;4.87;;;2.63;;
50379;SDS011;37474;59.468;18.040;2023-11-22T05:09:51;5.43;;;2.67;;
50379;SDS011;37474;59.468;18.040;2023-11-22T05:12:20;5.03;;;2.90;;
50379;SDS011;37474;59.468;18.040;2023-11-22T05:14:49;4.07;;;2.50;;
50379;SDS011;37474;59.468;18.040;2023-11-22T05:17:18;5.57;;;2.80;;
50379;SDS011;37474;59.468;18.040;2023-11-22T05:19:46;4.13;;;2.63;;
50379;SDS011;37474;59.468;18.040;2023-11-22T05:22:14;4.33;;;2.30;;
50379;SDS011;37474;59.468;18.040;2023-11-22T05:24:42;4.73;;;2.90;;
50379;SDS011;37474;59.468;18.040;2023-11-22T05:27:14;5.60;;;2.90;;
50379;SDS011;37474;59.468;18.040;2023-11-22T05:29:42;3.70;;;2.60;;
50379;SDS011;37474;59.468;18.040;2023-11-22T05:32:22;4.23;;;2.67;;
50379;SDS011;37474;59.468;18.040;2023-11-22T05:34:50;3.92;;;2.67;;
50379;SDS011;37474;59.468;18.040;2023-11-22T05:37:18;5.10;;;2.50;;
50379;SDS011;37474;59.468;18.040;2023-11-22T05:39:47;4.75;;;2.58;;
50379;SDS011;37474;59.468;18.040;2023-11-22T05:42:15;4.13;;;2.70;;
50379;SDS011;37474;59.468;18.040;2023-11-22T05:44:44;3.23;;;2.40;;
50379;SDS011;37474;59.468;18.040;2023-11-22T05:47:12;4.47;;;2.70;;
50379;SDS011;37474;59.468;18.040;2023-11-22T05:49:42;4.60;;;2.60;;
50379;SDS011;37474;59.468;18.040;2023-11-22T05:52:10;5.07;;;3.15;;
50379;SDS011;37474;59.468;18.040;2023-11-22T05:54:38;5.37;;;3.30;;
50379;SDS011;37474;59.468;18.040;2023-11-22T05:57:06;4.17;;;2.53;;
50379;SDS011;37474;59.468;18.040;2023-11-22T05:59:36;4.13;;;3.17;;
50379;SDS011;37474;59.468;18.040;2023-11-22T06:02:04;6.57;;;2.87;;
50379;SDS011;37474;59.468;18.040;2023-11-22T06:04:32;5.77;;;3.10;;
50379;SDS011;37474;59.468;18.040;2023-11-22T06:07:01;5.43;;;3.37;;
50379;SDS011;37474;59.468;18.040;2023-11-22T06:09:31;10.43;;;4.07;;
50379;SDS011;37474;59.468;18.040;2023-11-22T06:12:00;13.80;;;5.50;;
50379;SDS011;37474;59.468;18.040;2023-11-22T06:14:28;13.37;;;5.30;;
50379;SDS011;37474;59.468;18.040;2023-11-22T06:16:56;15.73;;;5.80;;
50379;SDS011;37474;59.468;18.040;2023-11-22T06:19:24;9.73;;;5.53;;
50379;SDS011;37474;59.468;18.040;2023-11-22T06:21:52;9.37;;;5.63;;
50379;SDS011;37474;59.468;18.040;2023-11-22T06:24:23;10.60;;;6.13;;
50379;SDS011;37474;59.468;18.040;2023-11-22T06:26:52;12.00;;;7.03;;
50379;SDS011;37474;59.468;18.040;2023-11-22T06:29:20;10.43;;;6.33;;
50379;SDS011;37474;59.468;18.040;2023-11-22T06:31:48;11.73;;;6.43;;
50379;SDS011;37474;59.468;18.040;2023-11-22T06:34:16;12.67;;;6.67;;
50379;SDS011;37474;59.468;18.040;2023-11-22T06:36:44;12.60;;;6.90;;
50379;SDS011;37474;59.468;18.040;2023-11-22T06:39:15;12.73;;;6.87;;
50379;SDS011;37474;59.468;18.040;2023-11-22T06:41:45;11.10;;;6.40;;
50379;SDS011;37474;59.468;18.040;2023-11-22T06:44:14;10.63;;;6.80;;
50379;SDS011;37474;59.468;18.040;2023-11-22T06:46:42;11.57;;;6.27;;
50379;SDS011;37474;59.468;18.040;2023-11-22T06:49:10;10.77;;;6.57;;
50379;SDS011;37474;59.468;18.040;2023-11-22T06:51:38;12.57;;;7.23;;
50379;SDS011;37474;59.468;18.040;2023-11-22T06:54:06;10.90;;;6.27;;
50379;SDS011;37474;59.468;18.040;2023-11-22T06:56:34;20.53;;;6.60;;
50379;SDS011;37474;59.468;18.040;2023-11-22T06:59:04;12.37;;;6.43;;
50379;SDS011;37474;59.468;18.040;2023-11-22T07:01:32;9.57;;;5.22;;
50379;SDS011;37474;59.468;18.040;2023-11-22T07:04:00;14.83;;;7.10;;
50379;SDS011;37474;59.468;18.040;2023-11-22T07:06:30;14.93;;;8.07;;
50379;SDS011;37474;59.468;18.040;2023-11-22T07:08:58;14.13;;;7.00;;
50379;SDS011;37474;59.468;18.040;2023-11-22T07:11:26;14.53;;;7.40;;
50379;SDS011;37474;59.468;18.040;2023-11-22T07:13:57;17.23;;;8.50;;
50379;SDS011;37474;59.468;18.040;2023-11-22T07:16:26;17.30;;;8.60;;
50379;SDS011;37474;59.468;18.040;2023-11-22T07:18:55;19.08;;;8.35;;
50379;SDS011;37474;59.468;18.040;2023-11-22T07:21:23;17.83;;;8.90;;
50379;SDS011;37474;59.468;18.040;2023-11-22T07:23:51;19.17;;;9.37;;
50379;SDS011;37474;59.468;18.040;2023-11-22T07:26:19;20.97;;;9.83;;
50379;SDS011;37474;59.468;18.040;2023-11-22T07:28:47;23.90;;;10.47;;
50379;SDS011;37474;59.468;18.040;2023-11-22T07:31:15;18.77;;;9.87;;
50379;SDS011;37474;59.468;18.040;2023-11-22T07:33:45;20.40;;;10.30;;
50379;SDS011;37474;59.468;18.040;2023-11-22T07:36:13;25.88;;;12.13;;
50379;SDS011;37474;59.468;18.040;2023-11-22T07:38:42;23.27;;;10.80;;
50379;SDS011;37474;59.468;18.040;2023-11-22T07:41:10;25.57;;;11.60;;
50379;SDS011;37474;59.468;18.040;2023-11-22T07:43:38;24.30;;;11.47;;
50379;SDS011;37474;59.468;18.040;2023-11-22T07:46:07;23.67;;;11.83;;
50379;SDS011;37474;59.468;18.040;2023-11-22T07:48:40;23.23;;;11.73;;
50379;SDS011;37474;59.468;18.040;2023-11-22T07:51:10;22.53;;;11.77;;
50379;SDS011;37474;59.468;18.040;2023-11-22T07:53:38;24.42;;;12.18;;
50379;SDS011;37474;59.468;18.040;2023-11-22T07:56:07;27.20;;;12.63;;
50379;SDS011;37474;59.468;18.040;2023-11-22T07:58:36;26.93;;;12.90;;
50379;SDS011;37474;59.468;18.040;2023-11-22T08:01:04;25.23;;;12.43;;
50379;SDS011;37474;59.468;18.040;2023-11-22T08:03:33;26.77;;;13.57;;
50379;SDS011;37474;59.468;18.040;2023-11-22T08:06:01;24.30;;;13.00;;
50379;SDS011;37474;59.468;18.040;2023-11-22T08:08:33;25.25;;;12.77;;
50379;SDS011;37474;59.468;18.040;2023-11-22T08:11:05;26.70;;;13.13;;
50379;SDS011;37474;59.468;18.040;2023-11-22T08:13:41;26.40;;;13.90;;
50379;SDS011;37474;59.468;18.040;2023-11-22T08:16:11;30.30;;;13.73;;
50379;SDS011;37474;59.468;18.040;2023-11-22T08:18:40;30.07;;;14.33;;
50379;SDS011;37474;59.468;18.040;2023-11-22T08:21:10;27.42;;;14.18;;
50379;SDS011;37474;59.468;18.040;2023-11-22T08:23:40;30.93;;;15.80;;
50379;SDS011;37474;59.468;18.040;2023-11-22T08:26:08;31.42;;;15.75;;
50379;SDS011;37474;59.468;18.040;2023-11-22T08:28:38;29.58;;;14.82;;
50379;SDS011;37474;59.468;18.040;2023-11-22T08:31:08;29.57;;;14.83;;
50379;SDS011;37474;59.468;18.040;2023-11-22T08:33:36;28.60;;;15.32;;
50379;SDS011;37474;59.468;18.040;2023-11-22T08:36:06;27.03;;;14.50;;
50379;SDS011;37474;59.468;18.040;2023-11-22T08:38:35;25.75;;;14.68;;
50379;SDS011;37474;59.468;18.040;2023-11-22T08:41:09;26.47;;;13.47;;
50379;SDS011;37474;59.468;18.040;2023-11-22T08:43:40;27.23;;;13.67;;
50379;SDS011;37474;59.468;18.040;2023-11-22T08:46:09;26.87;;;13.60;;
50379;SDS011;37474;59.468;18.040;2023-11-22T08:48:40;25.57;;;13.57;;
50379;SDS011;37474;59.468;18.040;2023-11-22T08:51:10;24.63;;;13.55;;
50379;SDS011;37474;59.468;18.040;2023-11-22T08:53:39;25.80;;;13.63;;
50379;SDS011;37474;59.468;18.040;2023-11-22T08:56:08;26.27;;;13.20;;
50379;SDS011;37474;59.468;18.040;2023-11-22T08:58:37;24.52;;;12.77;;
50379;SDS011;37474;59.468;18.040;2023-11-22T09:01:06;20.60;;;12.27;;
50379;SDS011;37474;59.468;18.040;2023-11-22T09:03:35;19.27;;;11.70;;
50379;SDS011;37474;59.468;18.040;2023-11-22T09:06:04;14.55;;;8.88;;
50379;SDS011;37474;59.468;18.040;2023-11-22T09:08:34;19.33;;;11.68;;
50379;SDS011;37474;59.468;18.040;2023-11-22T09:11:02;23.87;;;11.63;;
50379;SDS011;37474;59.468;18.040;2023-11-22T09:13:35;21.80;;;11.40;;
50379;SDS011;37474;59.468;18.040;2023-11-22T09:16:03;18.87;;;10.40;;
50379;SDS011;37474;59.468;18.040;2023-11-22T09:18:32;17.75;;;10.45;;
50379;SDS011;37474;59.468;18.040;2023-11-22T09:21:00;16.60;;;9.83;;
50379;SDS011;37474;59.468;18.040;2023-11-22T09:23:29;17.90;;;10.20;;
50379;SDS011;37474;59.468;18.040;2023-11-22T09:25:57;18.60;;;10.50;;
50379;SDS011;37474;59.468;18.040;2023-11-22T09:28:27;15.13;;;8.98;;
50379;SDS011;37474;59.468;18.040;2023-11-22T09:30:56;16.57;;;8.87;;
50379;SDS011;37474;59.468;18.040;2023-11-22T09:33:32;17.23;;;10.03;;
50379;SDS011;37474;59.468;18.040;2023-11-22T09:36:01;13.20;;;8.53;;
50379;SDS011;37474;59.468;18.040;2023-11-22T09:38:35;14.27;;;8.30;;
50379;SDS011;37474;59.468;18.040;2023-11-22T09:41:04;14.93;;;8.07;;
50379;SDS011;37474;59.468;18.040;2023-11-22T09:43:34;13.07;;;8.10;;
50379;SDS011;37474;59.468;18.040;2023-11-22T09:46:04;12.53;;;7.13;;
50379;SDS011;37474;59.468;18.040;2023-11-22T09:48:35;12.70;;;7.93;;
50379;SDS011;37474;59.468;18.040;2023-11-22T09:51:04;13.23;;;7.63;;
50379;SDS011;37474;59.468;18.040;2023-11-22T09:53:45;11.82;;;7.15;;
50379;SDS011;37474;59.468;18.040;2023-11-22T09:56:20;12.03;;;7.00;;
50379;SDS011;37474;59.468;18.040;2023-11-22T09:58:48;13.23;;;7.90;;
50379;SDS011;37474;59.468;18.040;2023-11-22T10:01:23;11.13;;;7.20;;
50379;SDS011;37474;59.468;18.040;2023-11-22T10:03:54;11.40;;;7.17;;
50379;SDS011;37474;59.468;18.040;2023-11-22T10:06:23;12.47;;;7.47;;
50379;SDS011;37474;59.468;18.040;2023-11-22T10:08:51;11.47;;;7.30;;
50379;SDS011;37474;59.468;18.040;2023-11-22T10:11:20;11.47;;;6.73;;
50379;SDS011;37474;59.468;18.040;2023-11-22T10:13:48;9.90;;;6.97;;
50379;SDS011;37474;59.468;18.040;2023-11-22T10:16:17;9.90;;;6.40;;
50379;SDS011;37474;59.468;18.040;2023-11-22T10:18:49;10.70;;;6.37;;
50379;SDS011;37474;59.468;18.040;2023-11-22T10:21:21;11.25;;;6.80;;
50379;SDS011;37474;59.468;18.040;2023-11-22T10:23:52;11.27;;;6.40;;
50379;SDS011;37474;59.468;18.040;2023-11-22T10:26:23;10.23;;;6.73;;
50379;SDS011;37474;59.468;18.040;2023-11-22T10:28:51;10.03;;;6.73;;
50379;SDS011;37474;59.468;18.040;2023-11-22T10:31:20;11.17;;;6.93;;
50379;SDS011;37474;59.468;18.040;2023-11-22T10:33:50;10.20;;;6.67;;
50379;SDS011;37474;59.468;18.040;2023-11-22T10:36:20;10.27;;;6.73;;
50379;SDS011;37474;59.468;18.040;2023-11-22T10:38:49;10.13;;;6.20;;
50379;SDS011;37474;59.468;18.040;2023-11-22T10:41:19;10.33;;;6.20;;
50379;SDS011;37474;59.468;18.040;2023-11-22T10:43:48;8.90;;;5.97;;
50379;SDS011;37474;59.468;18.040;2023-11-22T10:46:19;8.03;;;5.63;;
50379;SDS011;37474;59.468;18.040;2023-11-22T10:48:48;9.67;;;5.93;;
50379;SDS011;37474;59.468;18.040;2023-11-22T10:51:18;10.23;;;5.43;;
50379;SDS011;37474;59.468;18.040;2023-11-22T10:53:48;8.57;;;5.43;;
50379;SDS011;37474;59.468;18.040;2023-11-22T10:56:17;7.00;;;5.10;;
50379;SDS011;37474;59.468;18.040;2023-11-22T10:58:49;7.93;;;5.67;;
50379;SDS011;37474;59.468;18.040;2023-11-22T11:01:18;8.03;;;5.53;;
50379;SDS011;37474;59.468;18.040;2023-11-22T11:03:51;8.73;;;5.25;;
50379;SDS011;37474;59.468;18.040;2023-11-22T11:06:26;7.97;;;5.23;;
50379;SDS011;37474;59.468;18.040;2023-11-22T11:09:00;8.20;;;5.00;;
50379;SDS011;37474;59.468;18.040;2023-11-22T11:11:32;8.30;;;5.30;;
50379;SDS011;37474;59.468;18.040;2023-11-22T11:14:02;7.55;;;5.25;;
50379;SDS011;37474;59.468;18.040;2023-11-22T11:16:33;8.13;;;5.37;;
50379;SDS011;37474;59.468;18.040;2023-11-22T11:19:05;8.50;;;5.30;;
50379;SDS011;37474;59.468;18.040;2023-11-22T11:21:35;7.70;;;5.17;;
50379;SDS011;37474;59.468;18.040;2023-11-22T11:24:03;8.43;;;5.57;;
50379;SDS011;37474;59.468;18.040;2023-11-22T11:26:32;9.23;;;5.43;;
50379;SDS011;37474;59.468;18.040;2023-11-22T11:29:02;8.05;;;5.57;;
50379;SDS011;37474;59.468;18.040;2023-11-22T11:31:31;9.13;;;5.33;;
50379;SDS011;37474;59.468;18.040;2023-11-22T11:34:05;9.23;;;5.40;;
50379;SDS011;37474;59.468;18.040;2023-11-22T11:36:37;8.25;;;5.63;;
50379;SDS011;37474;59.468;18.040;2023-11-22T11:39:06;8.13;;;4.63;;
50379;SDS011;37474;59.468;18.040;2023-11-22T11:41:38;7.80;;;5.20;;
50379;SDS011;37474;59.468;18.040;2023-11-22T11:44:07;7.20;;;5.00;;
50379;SDS011;37474;59.468;18.040;2023-11-22T11:46:36;8.03;;;4.87;;
50379;SDS011;37474;59.468;18.040;2023-11-22T11:49:09;8.10;;;5.50;;
50379;SDS011;37474;59.468;18.040;2023-11-22T11:51:41;7.20;;;5.07;;
50379;SDS011;37474;59.468;18.040;2023-11-22T11:54:12;9.00;;;4.93;;
50379;SDS011;37474;59.468;18.040;2023-11-22T11:56:44;8.80;;;4.93;;
50379;SDS011;37474;59.468;18.040;2023-11-22T11:59:13;6.63;;;4.60;;
50379;SDS011;37474;59.468;18.040;2023-11-22T12:01:41;7.97;;;4.93;;
50379;SDS011;37474;59.468;18.040;2023-11-22T12:04:10;7.00;;;4.97;;
50379;SDS011;37474;59.468;18.040;2023-11-22T12:06:38;7.53;;;5.10;;
50379;SDS011;37474;59.468;18.040;2023-11-22T12:09:08;7.70;;;4.93;;
50379;SDS011;37474;59.468;18.040;2023-11-22T12:11:36;6.10;;;4.60;;
50379;SDS011;37474;59.468;18.040;2023-11-22T12:14:06;7.87;;;4.90;;
50379;SDS011;37474;59.468;18.040;2023-11-22T12:16:35;7.50;;;5.03;;
50379;SDS011;37474;59.468;18.040;2023-11-22T12:19:04;6.85;;;4.65;;
50379;SDS011;37474;59.468;18.040;2023-11-22T12:21:32;7.07;;;4.80;;
50379;SDS011;37474;59.468;18.040;2023-11-22T12:24:00;8.03;;;4.83;;
50379;SDS011;37474;59.468;18.040;2023-11-22T12:26:33;5.97;;;4.07;;
50379;SDS011;37474;59.468;18.040;2023-11-22T12:29:02;5.72;;;3.97;;
50379;SDS011;37474;59.468;18.040;2023-11-22T12:31:32;6.32;;;4.22;;
50379;SDS011;37474;59.468;18.040;2023-11-22T12:34:03;5.53;;;3.80;;
50379;SDS011;37474;59.468;18.040;2023-11-22T12:36:33;5.10;;;3.47;;
50379;SDS011;37474;59.468;18.040;2023-11-22T12:39:02;7.60;;;4.10;;
50379;SDS011;37474;59.468;18.040;2023-11-22T12:41:36;4.93;;;3.67;;
50379;SDS011;37474;59.468;18.040;2023-11-22T12:44:11;5.40;;;3.70;;
50379;SDS011;37474;59.468;18.040;2023-11-22T12:46:49;6.20;;;4.07;;
50379;SDS011;37474;59.468;18.040;2023-11-22T12:49:24;6.17;;;4.20;;
50379;SDS011;37474;59.468;18.040;2023-11-22T12:51:53;4.63;;;3.30;;
50379;SDS011;37474;59.468;18.040;2023-11-22T12:54:21;7.07;;;3.90;;
50379;SDS011;37474;59.468;18.040;2023-11-22T12:56:51;6.73;;;4.00;;
50379;SDS011;37474;59.468;18.040;2023-11-22T12:59:26;7.00;;;3.67;;
50379;SDS011;37474;59.468;18.040;2023-11-22T13:01:57;6.80;;;3.77;;
50379;SDS011;37474;59.468;18.040;2023-11-22T13:04:28;6.15;;;3.38;;
50379;SDS011;37474;59.468;18.040;2023-11-22T13:06:58;6.35;;;4.43;;
50379;SDS011;37474;59.468;18.040;2023-11-22T13:09:27;6.40;;;4.07;;
50379;SDS011;37474;59.468;18.040;2023-11-22T13:12:00;7.33;;;4.10;;
50379;SDS011;37474;59.468;18.040;2023-11-22T13:14:28;6.07;;;4.13;;
50379;SDS011;37474;59.468;18.040;2023-11-22T13:17:04;7.60;;;4.07;;
50379;SDS011;37474;59.468;18.040;2023-11-22T13:19:35;6.33;;;4.30;;
50379;SDS011;37474;59.468;18.040;2023-11-22T13:22:04;6.17;;;3.83;;
50379;SDS011;37474;59.468;18.040;2023-11-22T13:24:34;7.17;;;4.23;;
50379;SDS011;37474;59.468;18.040;2023-11-22T13:27:04;5.73;;;4.00;;
50379;SDS011;37474;59.468;18.040;2023-11-22T13:29:32;5.93;;;4.03;;
50379;SDS011;37474;59.468;18.040;2023-11-22T13:32:00;6.57;;;3.77;;
50379;SDS011;37474;59.468;18.040;2023-11-22T13:34:28;6.20;;;4.13;;
50379;SDS011;37474;59.468;18.040;2023-11-22T13:36:56;5.73;;;3.57;;
50379;SDS011;37474;59.468;18.040;2023-11-22T13:39:24;6.00;;;3.50;;
50379;SDS011;37474;59.468;18.040;2023-11-22T13:41:52;5.63;;;3.87;;
50379;SDS011;37474;59.468;18.040;2023-11-22T13:44:21;5.50;;;3.90;;
50379;SDS011;37474;59.468;18.040;2023-11-22T13:46:49;5.63;;;4.37;;
50379;SDS011;37474;59.468;18.040;2023-11-22T13:49:18;6.33;;;4.13;;
50379;SDS011;37474;59.468;18.040;2023-11-22T13:51:46;6.67;;;4.27;;
50379;SDS011;37474;59.468;18.040;2023-11-22T13:54:14;5.90;;;3.90;;
50379;SDS011;37474;59.468;18.040;2023-11-22T13:56:43;8.23;;;4.47;;
50379;SDS011;37474;59.468;18.040;2023-11-22T13:59:11;7.50;;;4.27;;
50379;SDS011;37474;59.468;18.040;2023-11-22T14:01:41;6.67;;;4.47;;
50379;SDS011;37474;59.468;18.040;2023-11-22T14:04:11;8.47;;;4.53;;
50379;SDS011;37474;59.468;18.040;2023-11-22T14:06:39;6.33;;;4.00;;
50379;SDS011;37474;59.468;18.040;2023-11-22T14:09:07;6.90;;;4.27;;
50379;SDS011;37474;59.468;18.040;2023-11-22T14:11:39;8.40;;;4.67;;
50379;SDS011;37474;59.468;18.040;2023-11-22T14:14:07;6.87;;;4.40;;
50379;SDS011;37474;59.468;18.040;2023-11-22T14:16:39;6.97;;;4.93;;
50379;SDS011;37474;59.468;18.040;2023-11-22T14:19:12;7.50;;;4.30;;
50379;SDS011;37474;59.468;18.040;2023-11-22T14:21:40;7.57;;;4.87;;
50379;SDS011;37474;59.468;18.040;2023-11-22T14:24:08;8.13;;;4.97;;
50379;SDS011;37474;59.468;18.040;2023-11-22T14:29:07;6.90;;;4.70;;
50379;SDS011;37474;59.468;18.040;2023-11-22T14:31:35;9.57;;;5.03;;
50379;SDS011;37474;59.468;18.040;2023-11-22T14:34:04;6.67;;;4.40;;
50379;SDS011;37474;59.468;18.040;2023-11-22T14:36:33;5.15;;;3.78;;
50379;SDS011;37474;59.468;18.040;2023-11-22T14:39:03;5.80;;;4.07;;
50379;SDS011;37474;59.468;18.040;2023-11-22T14:44:01;5.47;;;3.63;;
50379;SDS011;37474;59.468;18.040;2023-11-22T14:46:29;6.57;;;3.73;;